Marland, OK (74644)

22:30 CDT le 28 août 2014 (GMT -0500)
Downtown | Change Station
CLOSE
Current Station
Stations météorologiques personnelles
Location: Marland, OK
Altitude: 1040 ft
Stations météo à proximité

Alt. 1040 ft 36.56 °N, 97.15 °W | Updated 3 minutes ago

Pluie
Pluie
68.7 ° F
Paraît 68.7 ° F
N
2.0
Vent Variable Vent de ENE
Gusts 2.0 mph

Aujourd'hui
Haut(e) -- | Bas -- ° F
--% Risque de précip.
Hier
Haut(e) -- | Bas -- ° F
Precip. -- pouce
6:56 AM 8:02 PM
Lune montante, 11% visible
Pression 29.91 pouce
Visibilité 4.0 Miles terrestres
Nuages Couvert 6000 ft
Point de rosée 67 ° F
Humidité 94%
Précipitations 0.15 pouce
Profondeur de la couche neigeuse Non disponible.
UV 0 sur 12
Pollen 9.80 sur 12
Qualité de l'air Non disponible.
Flu Activity Non disponible.
METAR KPNC 290253Z AUTO 30006G17KT 4SM VCTS RA BR OVC060 21/19 A2994 RMK AO2 LTG DSNT SW-NW RAB29 TSB32E47 SLP128 6//// T02060189 53027 PNO $

More Conditions Fewer Conditions

Pression 29.91 pouce
Visibilité 4.0 Miles terrestres
Nuages Couvert 6000 ft
Point de rosée 67 ° F
Humidité 94%
Précipitations 0.15 pouce
Profondeur de la couche neigeuse Non disponible.
UV 0 sur 12
Pollen 9.80 sur 12
Qualité de l'air Non disponible.
Flu Activity Non disponible.
METAR KPNC 290253Z AUTO 30006G17KT 4SM VCTS RA BR OVC060 21/19 A2994 RMK AO2 LTG DSNT SW-NW RAB29 TSB32E47 SLP128 6//// T02060189 53027 PNO $

More Conditions Fewer Conditions

10-Day Weather Forecast

Almanac

Astronomie

Aug. 28, 2014 Lever Coucher
Temps réel 06:56 CDT 20:02 CDT
Crépuscule civil 06:30 CDT 20:28 CDT
Crépuscule nautique 05:58 CDT 21:00 CDT
Crépuscule astronomique 05:25 CDT 21:33 CDT
Lune 09:44 CDT (8/28) 21:33 CDT (8/28)
Durée de lumière visible 13h 58m
Longueur du jour
13h 05m
Tomorrow will be 2m 12s shorter.
Lune montante, 11% of the Moon is Illuminated
Aujourd'hui
Lune montante
Sep 2
Premier quartier
Sep 8
Pleine lune
Sep 15
Dernier quartier
Sep 24
Nouveau

Extrêmes aujourd'hui

State Highs State Lows

Community

WunderPhotos

Upload Photos

1,748,175 Photos téléchargées !

Nearby

Épaisseur de neige

Station Depth Altitude
Pas de nouvelles chutes de neige

Activité sismique

Ville Distance Mag. Time & Date
Stillwater, Oklahoma 32 Miles terrestres 3.1 10:44 CDT
2014-08-27
Anthony, Kansas 51 Miles terrestres 2.8 10:11 CDT
2014-08-27
Guthrie, Oklahoma 53 Miles terrestres 3.2 11:05 CDT
2014-08-26
Harrah, Oklahoma 71 Miles terrestres 2.5 08:53 CDT
2014-08-26
Minimum magnitude displayed is 2.5.

Températures des eaux côtières

Lieu Température
Aucun rapport de station

Stations météo à proximité